Main page
METAR-TAF:

METAR-TAF

Airports :

Damascus International Airport

Damascus, Syria

latitude: 33-25N, longitude: 036-31E, elevation: 608 m

Current weather observation

The report was made 57 minutes ago, at 21:00 UTC
Wind 16 kt from the Southwest
Temperature 20°C
Humidity 53%
Pressure 1011 hPa
Visibility 10 km or more
no clouds below 1500 m and no cumulonimbus

METAR: OSDI 172100Z 22016KT CAVOK 20/10 Q1011

Time: 00:57 (21:57 UTC)

Forecast

The report was made 5 hours and 57 minutes ago, at 16:00 UTC
Forecast valid from 17 at 18 UTC to 18 at 24 UTC
Wind 10 kt from the South/Southwest
Visibility 10 km or more
no clouds below 1500 m and no cumulonimbus
Temporary
from 18 at 09 UTC to 18 at 20 UTC
Wind 15 kt from the West/Southwest with gusts up to 25 kt
Visibility 10 km or more
Few clouds at a height of 3000 ft

TAF: OSDI 171600Z 1718/1824 20010KT CAVOK TEMPO 1809/1820 24015G25KT 9999 FEW030

Weather observations and forecasts of more than 4000 airports (METAR and TAF reports).

The available stations are represented by yellow and red dots on the map.

Hover mouse over dot to see the name of the station.

Then click to see weather observations and forecasts.

To change the map : click on the green buttons with a black cross to zoom in, on the green button with a dash to zoom out, or on the green arrows for adjacent maps.


METAR-TAF: